Time;durP1;ratioP1;P1;durP2;ratioP2;P2;SDS_P1;SDS_P2;PMS_P1;PMS_P2;Temp;Humidity;BMP_temperature;BMP_pressure;BME280_temperature;BME280_humidity;BME280_pressure;Samples;Min_cycle;Max_cycle;Signal;HPM_P1;HPM_P2
2022/10/25 00:00:49;;;;;;;1.77;1.67;;;;;;;;;;5056702;28;20445;-77
2022/10/25 00:03:16;;;;;;;1.50;1.37;;;;;;;;;;5062862;28;20453;-78
2022/10/25 00:05:43;;;;;;;1.70;1.60;;;;;;;;;;5064074;28;20463;-77
2022/10/25 00:08:10;;;;;;;1.50;1.40;;;;;;;;;;5060247;28;20441;-77
2022/10/25 00:10:38;;;;;;;3.87;1.43;;;;;;;;;;5057436;28;20441;-77
2022/10/25 00:13:05;;;;;;;1.60;1.50;;;;;;;;;;5061413;28;20429;-79
2022/10/25 00:15:33;;;;;;;1.90;1.80;;;;;;;;;;5060384;28;20450;-77
2022/10/25 00:18:00;;;;;;;1.97;1.77;;;;;;;;;;5050137;28;20524;-77
2022/10/25 00:20:27;;;;;;;3.93;1.70;;;;;;;;;;5053144;28;20456;-78
2022/10/25 00:22:54;;;;;;;2.17;1.63;;;;;;;;;;5051068;28;20539;-76
2022/10/25 00:25:21;;;;;;;1.90;1.80;;;;;;;;;;5063280;28;20782;-78
2022/10/25 00:27:48;;;;;;;4.70;1.97;;;;;;;;;;5074857;28;20995;-78
2022/10/25 00:30:16;;;;;;;2.40;1.63;;;;;;;;;;5074668;28;20437;-78
2022/10/25 00:32:44;;;;;;;1.90;1.80;;;;;;;;;;5073422;28;20476;-77
2022/10/25 00:35:11;;;;;;;2.93;2.07;;;;;;;;;;5073975;28;20447;-76
2022/10/25 00:37:38;;;;;;;3.97;1.90;;;;;;;;;;5066768;28;20449;-78
2022/10/25 00:40:06;;;;;;;2.17;1.97;;;;;;;;;;5066447;28;20452;-77
2022/10/25 00:42:33;;;;;;;2.70;1.73;;;;;;;;;;5072226;28;20468;-77
2022/10/25 00:45:02;;;;;;;2.17;2.00;;;;;;;;;;5073302;28;20449;-77
2022/10/25 00:47:32;;;;;;;2.43;2.13;;;;;;;;;;5073299;28;20479;-76
2022/10/25 00:50:03;;;;;;;2.37;1.60;;;;;;;;;;5068343;28;20449;-77
2022/10/25 00:52:32;;;;;;;2.13;2.03;;;;;;;;;;5071390;28;20472;-79
2022/10/25 00:55:00;;;;;;;2.50;2.00;;;;;;;;;;5072703;28;20448;-77
2022/10/25 00:57:29;;;;;;;1.87;1.70;;;;;;;;;;5072651;28;20453;-77
2022/10/25 00:59:57;;;;;;;1.90;1.80;;;;;;;;;;5072666;28;20505;-76
2022/10/25 01:02:24;;;;;;;2.00;1.60;;;;;;;;;;5072841;28;20468;-77
2022/10/25 01:04:51;;;;;;;3.30;1.87;;;;;;;;;;5072213;28;20440;-77
2022/10/25 01:07:20;;;;;;;1.87;1.50;;;;;;;;;;5072836;28;21030;-79
2022/10/25 01:09:47;;;;;;;2.57;2.37;;;;;;;;;;5072383;28;20447;-79
2022/10/25 01:12:14;;;;;;;2.30;1.73;;;;;;;;;;5073061;28;20472;-78
2022/10/25 01:14:42;;;;;;;2.53;1.63;;;;;;;;;;5072312;28;20452;-79
2022/10/25 01:17:14;;;;;;;2.40;1.83;;;;;;;;;;5072940;28;20445;-77
2022/10/25 01:19:59;;;;;;;2.27;2.07;;;;;;;;;;5072800;28;20837;-77
2022/10/25 01:22:30;;;;;;;3.00;2.00;;;;;;;;;;5073390;28;21006;-79
2022/10/25 01:25:09;;;;;;;3.30;2.10;;;;;;;;;;5073433;28;20959;-77
2022/10/25 01:27:47;;;;;;;2.60;1.90;;;;;;;;;;5072766;28;20887;-77
2022/10/25 01:30:17;;;;;;;2.10;1.87;;;;;;;;;;5072485;28;20523;-78
2022/10/25 01:32:49;;;;;;;2.93;2.10;;;;;;;;;;5071433;28;20925;-77
2022/10/25 01:35:19;;;;;;;1.80;1.70;;;;;;;;;;5071925;28;20448;-78
2022/10/25 01:37:54;;;;;;;2.00;1.90;;;;;;;;;;5072416;28;20448;-77
2022/10/25 01:40:24;;;;;;;2.17;2.07;;;;;;;;;;5071903;28;20444;-77
2022/10/25 01:42:55;;;;;;;3.33;2.10;;;;;;;;;;5071245;28;20465;-76
2022/10/25 01:45:25;;;;;;;2.00;1.90;;;;;;;;;;5072108;28;20446;-77
2022/10/25 01:47:55;;;;;;;1.93;1.80;;;;;;;;;;5071886;28;20567;-77
2022/10/25 01:50:25;;;;;;;2.73;2.07;;;;;;;;;;5071902;28;20451;-78
2022/10/25 01:52:52;;;;;;;2.00;1.80;;;;;;;;;;5071143;28;20472;-76
2022/10/25 01:55:20;;;;;;;4.13;2.17;;;;;;;;;;5071744;28;20445;-76
2022/10/25 01:57:58;;;;;;;2.87;1.90;;;;;;;;;;5071563;28;20441;-78
2022/10/25 02:00:25;;;;;;;3.10;1.93;;;;;;;;;;5071630;28;20474;-77
2022/10/25 02:03:06;;;;;;;1.83;1.73;;;;;;;;;;5070866;28;20475;-76
2022/10/25 02:05:38;;;;;;;2.03;1.93;;;;;;;;;;5071542;28;20455;-78
2022/10/25 02:08:06;;;;;;;4.57;2.17;;;;;;;;;;5071509;28;20512;-77
2022/10/25 02:10:36;;;;;;;2.77;1.83;;;;;;;;;;5071555;28;20812;-77
2022/10/25 02:13:05;;;;;;;3.33;2.47;;;;;;;;;;5064202;28;20891;-77
2022/10/25 02:15:35;;;;;;;3.60;2.10;;;;;;;;;;5063119;28;20441;-77
2022/10/25 02:18:05;;;;;;;5.93;2.07;;;;;;;;;;5071126;28;20437;-77
2022/10/25 02:20:34;;;;;;;3.27;2.23;;;;;;;;;;5071109;28;20453;-76
2022/10/25 02:23:03;;;;;;;2.20;2.10;;;;;;;;;;5070278;28;20463;-77
2022/10/25 02:25:32;;;;;;;2.87;2.27;;;;;;;;;;5071585;28;20440;-77
2022/10/25 02:27:59;;;;;;;2.27;2.07;;;;;;;;;;5070633;28;20996;-77
2022/10/25 02:30:27;;;;;;;1.83;1.70;;;;;;;;;;5071123;28;20456;-76
2022/10/25 02:32:54;;;;;;;3.20;2.20;;;;;;;;;;5070245;28;20848;-78
2022/10/25 02:35:23;;;;;;;3.17;2.87;;;;;;;;;;5070690;28;20444;-76
2022/10/25 02:37:50;;;;;;;2.90;2.17;;;;;;;;;;5070958;28;20444;-77
2022/10/25 02:40:17;;;;;;;7.70;2.60;;;;;;;;;;5071018;28;20818;-77
2022/10/25 02:42:44;;;;;;;2.13;2.03;;;;;;;;;;5070346;28;21324;-77
2022/10/25 02:45:11;;;;;;;3.60;2.63;;;;;;;;;;5070635;28;20445;-78
2022/10/25 02:47:38;;;;;;;2.93;2.40;;;;;;;;;;5069535;28;20499;-78
2022/10/25 02:50:06;;;;;;;3.57;2.27;;;;;;;;;;5070703;28;20785;-78
2022/10/25 02:52:34;;;;;;;6.83;2.50;;;;;;;;;;5070012;28;20456;-77
2022/10/25 02:55:01;;;;;;;4.30;2.70;;;;;;;;;;5070694;28;20452;-76
2022/10/25 02:57:32;;;;;;;3.93;2.50;;;;;;;;;;5070342;28;20437;-77
2022/10/25 02:59:59;;;;;;;2.87;2.53;;;;;;;;;;5070694;28;20440;-76
2022/10/25 03:02:26;;;;;;;4.27;2.80;;;;;;;;;;5070046;28;20472;-77
2022/10/25 03:04:53;;;;;;;3.60;1.97;;;;;;;;;;5070130;28;20862;-76
2022/10/25 03:07:20;;;;;;;4.07;2.40;;;;;;;;;;5070246;28;20472;-76
2022/10/25 03:09:49;;;;;;;2.83;2.20;;;;;;;;;;5070798;28;20440;-76
2022/10/25 03:12:16;;;;;;;2.67;2.47;;;;;;;;;;5063892;28;20458;-76
2022/10/25 03:14:43;;;;;;;2.60;2.40;;;;;;;;;;5049487;28;20813;-76
2022/10/25 03:17:10;;;;;;;3.20;2.90;;;;;;;;;;5050041;28;20967;-76
2022/10/25 03:19:37;;;;;;;2.50;2.40;;;;;;;;;;5050275;28;20445;-78
2022/10/25 03:22:04;;;;;;;2.77;2.57;;;;;;;;;;5050534;28;20461;-76
2022/10/25 03:24:31;;;;;;;3.73;2.50;;;;;;;;;;5049810;28;20453;-76
2022/10/25 03:27:01;;;;;;;3.10;2.40;;;;;;;;;;5050095;28;20472;-76
2022/10/25 03:29:28;;;;;;;4.03;3.20;;;;;;;;;;5068784;28;20445;-76
2022/10/25 03:31:55;;;;;;;5.20;2.50;;;;;;;;;;5069943;28;20483;-76
2022/10/25 03:34:22;;;;;;;6.40;2.50;;;;;;;;;;5069479;28;20441;-77
2022/10/25 03:36:49;;;;;;;4.90;2.70;;;;;;;;;;5069913;28;20480;-77
2022/10/25 03:39:16;;;;;;;3.20;2.60;;;;;;;;;;5069817;28;20458;-76
2022/10/25 03:41:43;;;;;;;5.67;2.70;;;;;;;;;;5069733;28;20468;-76
2022/10/25 03:44:11;;;;;;;2.57;2.37;;;;;;;;;;5068928;28;20447;-76
2022/10/25 03:46:38;;;;;;;2.67;2.47;;;;;;;;;;5070092;28;20445;-77
2022/10/25 03:49:05;;;;;;;3.03;2.57;;;;;;;;;;5069662;28;20507;-76
2022/10/25 03:51:32;;;;;;;5.80;2.73;;;;;;;;;;5069772;28;20469;-76
2022/10/25 03:53:59;;;;;;;3.03;2.83;;;;;;;;;;5069161;28;20471;-77
2022/10/25 03:56:26;;;;;;;4.07;2.80;;;;;;;;;;5069575;28;20452;-76
2022/10/25 03:58:53;;;;;;;4.23;2.57;;;;;;;;;;5072399;28;20835;-76
2022/10/25 04:01:22;;;;;;;3.53;2.53;;;;;;;;;;5074074;28;20464;-76
2022/10/25 04:03:49;;;;;;;4.00;3.47;;;;;;;;;;5073377;28;20941;-76
2022/10/25 04:06:16;;;;;;;4.50;2.80;;;;;;;;;;5073625;28;20448;-75
2022/10/25 04:08:43;;;;;;;6.40;2.90;;;;;;;;;;5073953;28;20491;-76
2022/10/25 04:11:10;;;;;;;2.70;2.40;;;;;;;;;;5073606;28;20475;-76
2022/10/25 04:13:37;;;;;;;3.03;2.70;;;;;;;;;;5072660;28;20441;-77
2022/10/25 04:16:06;;;;;;;2.90;2.60;;;;;;;;;;5073742;28;20913;-76
2022/10/25 04:18:35;;;;;;;3.03;2.73;;;;;;;;;;5073849;28;20432;-77
2022/10/25 04:21:02;;;;;;;3.17;2.87;;;;;;;;;;5070753;28;20992;-78
2022/10/25 04:23:30;;;;;;;4.23;2.60;;;;;;;;;;5072490;28;20462;-75
2022/10/25 04:25:57;;;;;;;2.90;2.57;;;;;;;;;;5073396;28;20871;-76
2022/10/25 04:28:25;;;;;;;3.00;2.60;;;;;;;;;;5072126;28;20475;-77
2022/10/25 04:30:52;;;;;;;5.53;3.00;;;;;;;;;;5073116;28;20451;-76
2022/10/25 04:33:19;;;;;;;3.47;2.83;;;;;;;;;;5072596;28;20940;-76
2022/10/25 04:35:55;;;;;;;4.40;2.90;;;;;;;;;;5073061;28;20937;-76
2022/10/25 04:38:22;;;;;;;3.33;2.60;;;;;;;;;;5073005;28;20444;-76
2022/10/25 04:40:53;;;;;;;3.93;3.10;;;;;;;;;;5073024;28;20447;-76
2022/10/25 04:43:20;;;;;;;2.80;2.60;;;;;;;;;;5072888;28;20472;-77
2022/10/25 04:45:48;;;;;;;5.90;2.77;;;;;;;;;;5073428;28;20757;-77
2022/10/25 04:48:15;;;;;;;5.23;3.13;;;;;;;;;;5072994;28;20480;-76
2022/10/25 04:50:42;;;;;;;6.07;3.10;;;;;;;;;;5072483;28;20467;-78
2022/10/25 04:53:10;;;;;;;4.77;3.03;;;;;;;;;;5068201;28;20453;-76
2022/10/25 04:55:37;;;;;;;5.40;2.87;;;;;;;;;;5069197;28;20452;-78
2022/10/25 04:58:05;;;;;;;3.10;2.80;;;;;;;;;;5067333;28;20438;-76
2022/10/25 05:00:32;;;;;;;3.13;2.83;;;;;;;;;;5072694;28;20440;-78
2022/10/25 05:02:59;;;;;;;5.70;2.90;;;;;;;;;;5072645;28;20464;-77
2022/10/25 05:05:26;;;;;;;3.37;3.13;;;;;;;;;;5068479;28;20464;-75
2022/10/25 05:07:53;;;;;;;4.07;3.00;;;;;;;;;;5067957;28;20480;-77
2022/10/25 05:10:21;;;;;;;4.23;3.60;;;;;;;;;;5072096;28;20461;-77
2022/10/25 05:12:48;;;;;;;3.70;3.40;;;;;;;;;;5060861;28;20465;-77
2022/10/25 05:15:16;;;;;;;4.03;3.40;;;;;;;;;;5052720;28;20433;-76
2022/10/25 05:17:43;;;;;;;3.83;2.87;;;;;;;;;;5052898;28;20440;-78
2022/10/25 05:20:10;;;;;;;4.43;3.30;;;;;;;;;;5052934;28;20471;-77
2022/10/25 05:22:37;;;;;;;3.63;2.57;;;;;;;;;;5052017;28;20484;-76
2022/10/25 05:25:05;;;;;;;3.10;2.80;;;;;;;;;;5052778;28;20445;-77
2022/10/25 05:27:36;;;;;;;4.87;2.80;;;;;;;;;;5052266;28;20438;-77
2022/10/25 05:30:04;;;;;;;2.87;2.60;;;;;;;;;;5052738;28;20434;-77
2022/10/25 05:32:31;;;;;;;4.53;3.80;;;;;;;;;;5051974;28;20493;-75
2022/10/25 05:34:58;;;;;;;2.90;2.70;;;;;;;;;;5052763;28;20836;-76
2022/10/25 05:37:25;;;;;;;3.53;3.10;;;;;;;;;;5052391;28;20453;-77
2022/10/25 05:39:52;;;;;;;5.47;2.53;;;;;;;;;;5052692;28;20438;-77
2022/10/25 05:42:19;;;;;;;4.90;2.97;;;;;;;;;;5052704;28;20464;-76
2022/10/25 05:44:47;;;;;;;3.63;2.97;;;;;;;;;;5051449;28;20502;-75
2022/10/25 05:47:14;;;;;;;2.60;2.40;;;;;;;;;;5052376;28;20449;-75
2022/10/25 05:49:41;;;;;;;4.00;3.40;;;;;;;;;;5052016;28;20485;-76
2022/10/25 05:52:08;;;;;;;4.33;3.17;;;;;;;;;;5052364;28;20823;-75
2022/10/25 05:54:36;;;;;;;2.60;2.40;;;;;;;;;;5051451;28;20444;-76
2022/10/25 05:57:03;;;;;;;4.30;3.17;;;;;;;;;;5051997;28;20457;-75
2022/10/25 05:59:30;;;;;;;4.97;3.40;;;;;;;;;;5051871;28;20440;-75
2022/10/25 06:01:58;;;;;;;8.17;3.23;;;;;;;;;;5052448;28;20472;-76
2022/10/25 06:04:25;;;;;;;3.27;2.77;;;;;;;;;;5051858;28;20442;-77
2022/10/25 06:06:52;;;;;;;3.43;3.10;;;;;;;;;;5055867;28;20449;-75
2022/10/25 06:09:19;;;;;;;4.93;3.00;;;;;;;;;;5056726;28;20485;-75
2022/10/25 06:11:46;;;;;;;2.90;2.70;;;;;;;;;;5055604;28;20470;-76
2022/10/25 06:14:14;;;;;;;4.70;3.03;;;;;;;;;;5056422;28;20445;-75
2022/10/25 06:16:41;;;;;;;3.00;2.67;;;;;;;;;;5057283;28;20448;-75
2022/10/25 06:19:09;;;;;;;6.40;3.03;;;;;;;;;;5066035;28;20437;-76
2022/10/25 06:21:37;;;;;;;4.77;2.63;;;;;;;;;;5071848;28;20469;-76
2022/10/25 06:24:04;;;;;;;5.93;3.23;;;;;;;;;;5070971;28;20455;-76
2022/10/25 06:26:31;;;;;;;5.90;3.17;;;;;;;;;;5072228;28;20821;-76
2022/10/25 06:28:59;;;;;;;3.43;2.83;;;;;;;;;;5071100;28;21022;-76
2022/10/25 06:31:27;;;;;;;5.53;3.03;;;;;;;;;;5071428;28;20810;-76
2022/10/25 06:33:54;;;;;;;3.80;2.97;;;;;;;;;;5070873;28;20444;-76
2022/10/25 06:36:25;;;;;;;4.67;2.97;;;;;;;;;;5071298;28;20460;-77
2022/10/25 06:38:52;;;;;;;4.60;4.03;;;;;;;;;;5071428;28;20440;-76
2022/10/25 06:41:20;;;;;;;7.27;3.17;;;;;;;;;;5070825;28;20464;-76
2022/10/25 06:43:47;;;;;;;4.60;3.20;;;;;;;;;;5070824;28;20531;-77
2022/10/25 06:46:19;;;;;;;2.97;2.63;;;;;;;;;;5071390;28;20440;-77
2022/10/25 06:48:46;;;;;;;3.77;3.23;;;;;;;;;;5071176;28;20491;-77
2022/10/25 06:51:13;;;;;;;5.67;3.60;;;;;;;;;;5071182;28;20465;-76
2022/10/25 06:53:41;;;;;;;8.33;3.20;;;;;;;;;;5070844;28;20456;-79
2022/10/25 06:56:09;;;;;;;4.03;3.63;;;;;;;;;;5071479;28;20445;-78
2022/10/25 06:58:37;;;;;;;4.80;3.80;;;;;;;;;;5071163;28;20439;-76
2022/10/25 07:01:04;;;;;;;4.20;2.97;;;;;;;;;;5072273;28;20464;-76
2022/10/25 07:03:34;;;;;;;4.83;3.53;;;;;;;;;;5071340;28;20441;-78
2022/10/25 07:06:01;;;;;;;3.40;3.13;;;;;;;;;;5071800;28;20445;-78
2022/10/25 07:08:29;;;;;;;3.27;2.60;;;;;;;;;;5071567;28;20476;-77
2022/10/25 07:10:57;;;;;;;8.37;6.53;;;;;;;;;;5071343;28;20452;-78
2022/10/25 07:13:25;;;;;;;4.00;2.57;;;;;;;;;;5071480;28;20436;-79
2022/10/25 07:15:52;;;;;;;7.60;4.43;;;;;;;;;;5070801;28;20448;-78
2022/10/25 07:18:19;;;;;;;6.40;3.00;;;;;;;;;;5068214;28;20445;-77
2022/10/25 07:20:47;;;;;;;4.37;2.77;;;;;;;;;;5050903;28;20446;-76
2022/10/25 07:23:14;;;;;;;6.43;3.00;;;;;;;;;;5054266;28;20449;-77
2022/10/25 07:25:41;;;;;;;4.33;2.77;;;;;;;;;;5070687;28;21176;-79
2022/10/25 07:28:11;;;;;;;6.00;2.30;;;;;;;;;;5067136;28;20441;-77
2022/10/25 07:30:44;;;;;;;3.93;2.43;;;;;;;;;;5072179;28;20472;-77
2022/10/25 07:33:11;;;;;;;4.70;2.30;;;;;;;;;;5070181;28;20429;-77
2022/10/25 07:35:38;;;;;;;2.63;2.40;;;;;;;;;;5070676;28;20480;-77
2022/10/25 07:38:05;;;;;;;2.83;2.30;;;;;;;;;;5070377;28;20452;-77
2022/10/25 07:40:32;;;;;;;3.80;2.90;;;;;;;;;;5070633;28;20445;-78
2022/10/25 07:42:59;;;;;;;6.03;2.70;;;;;;;;;;5069572;28;20469;-77
2022/10/25 07:45:27;;;;;;;4.67;2.50;;;;;;;;;;5070301;28;20448;-77
2022/10/25 07:47:54;;;;;;;2.53;2.33;;;;;;;;;;5070211;28;20464;-77
2022/10/25 07:50:21;;;;;;;3.10;2.40;;;;;;;;;;5070689;28;20460;-77
2022/10/25 07:52:48;;;;;;;4.30;2.67;;;;;;;;;;5069429;28;20833;-77
2022/10/25 07:55:15;;;;;;;3.10;2.10;;;;;;;;;;5070523;28;20444;-77
2022/10/25 07:57:42;;;;;;;2.50;2.30;;;;;;;;;;5070157;28;20437;-77
2022/10/25 08:00:10;;;;;;;4.10;2.50;;;;;;;;;;5070298;28;20444;-78
2022/10/25 08:02:38;;;;;;;3.10;2.80;;;;;;;;;;5069673;28;20456;-76
2022/10/25 08:05:08;;;;;;;2.70;1.90;;;;;;;;;;5070205;28;20448;-77
2022/10/25 08:07:35;;;;;;;4.23;2.30;;;;;;;;;;5070306;28;20445;-77
2022/10/25 08:10:02;;;;;;;3.27;2.17;;;;;;;;;;5069911;28;20480;-77
2022/10/25 08:12:29;;;;;;;1.80;1.70;;;;;;;;;;5070115;28;20460;-77
2022/10/25 08:14:56;;;;;;;3.27;2.13;;;;;;;;;;5070252;28;20440;-76
2022/10/25 08:17:23;;;;;;;2.90;1.93;;;;;;;;;;5070959;28;20447;-76
2022/10/25 08:19:51;;;;;;;3.30;1.87;;;;;;;;;;5070777;28;20807;-78
2022/10/25 08:22:18;;;;;;;4.00;2.30;;;;;;;;;;5069799;28;20934;-78
2022/10/25 08:24:45;;;;;;;2.63;1.90;;;;;;;;;;5069772;28;20960;-76
2022/10/25 08:27:12;;;;;;;3.37;2.20;;;;;;;;;;5070604;28;20443;-76
2022/10/25 08:29:39;;;;;;;2.50;1.60;;;;;;;;;;5070098;28;20476;-77
2022/10/25 08:32:06;;;;;;;2.70;1.70;;;;;;;;;;5070510;28;20464;-76
2022/10/25 08:34:34;;;;;;;2.30;2.10;;;;;;;;;;5069817;28;20449;-76
2022/10/25 08:37:02;;;;;;;3.93;1.83;;;;;;;;;;5070801;28;20463;-77
2022/10/25 08:39:29;;;;;;;1.73;1.63;;;;;;;;;;5071739;28;20445;-78
2022/10/25 08:41:57;;;;;;;3.23;2.13;;;;;;;;;;5088049;28;20475;-78
2022/10/25 08:44:27;;;;;;;6.70;1.83;;;;;;;;;;5096103;28;20428;-78
2022/10/25 08:46:56;;;;;;;2.07;1.80;;;;;;;;;;5100451;28;20427;-75
2022/10/25 08:49:26;;;;;;;3.20;1.63;;;;;;;;;;5092894;28;20472;-77
2022/10/25 08:51:55;;;;;;;3.20;1.80;;;;;;;;;;5074903;28;20468;-76
2022/10/25 08:54:25;;;;;;;3.53;2.10;;;;;;;;;;5072606;28;20451;-78
2022/10/25 08:56:53;;;;;;;5.27;1.97;;;;;;;;;;5073310;28;20451;-76
2022/10/25 08:59:23;;;;;;;3.07;1.57;;;;;;;;;;5073255;28;20433;-76
2022/10/25 09:01:53;;;;;;;4.70;1.90;;;;;;;;;;5073357;28;20820;-78
2022/10/25 09:04:20;;;;;;;4.20;1.77;;;;;;;;;;5072309;28;20443;-76
2022/10/25 09:06:50;;;;;;;3.47;2.07;;;;;;;;;;5073564;28;20436;-76
2022/10/25 09:09:24;;;;;;;3.50;1.97;;;;;;;;;;5072841;28;20495;-77
2022/10/25 09:11:58;;;;;;;3.53;1.93;;;;;;;;;;5070392;28;20540;-78
2022/10/25 09:14:32;;;;;;;2.40;1.40;;;;;;;;;;5059023;28;20464;-77
2022/10/25 09:17:04;;;;;;;3.97;1.90;;;;;;;;;;5065236;28;20448;-77
2022/10/25 09:19:34;;;;;;;2.43;1.50;;;;;;;;;;5058682;28;20433;-76
2022/10/25 09:22:02;;;;;;;3.70;1.70;;;;;;;;;;5067185;28;20464;-76
2022/10/25 09:24:30;;;;;;;2.93;1.70;;;;;;;;;;5071984;28;20441;-77
2022/10/25 09:27:05;;;;;;;3.07;1.93;;;;;;;;;;5072659;28;20439;-76
2022/10/25 09:29:34;;;;;;;4.83;1.50;;;;;;;;;;5072430;28;20506;-79
2022/10/25 09:32:02;;;;;;;2.53;1.60;;;;;;;;;;5072494;28;20465;-76
2022/10/25 09:34:32;;;;;;;2.40;1.60;;;;;;;;;;5072186;28;20440;-77
2022/10/25 09:37:03;;;;;;;1.77;1.20;;;;;;;;;;5073024;28;20958;-79
2022/10/25 09:39:34;;;;;;;2.23;2.00;;;;;;;;;;5073358;28;20448;-76
2022/10/25 09:42:03;;;;;;;3.30;1.50;;;;;;;;;;5066967;28;20472;-76
2022/10/25 09:44:35;;;;;;;3.70;1.47;;;;;;;;;;5049255;28;20446;-78
2022/10/25 09:47:09;;;;;;;5.10;4.60;;;;;;;;;;5057691;28;20448;-77
2022/10/25 09:49:40;;;;;;;3.63;2.40;;;;;;;;;;5062950;28;20480;-76
2022/10/25 09:52:12;;;;;;;3.10;1.50;;;;;;;;;;5072334;28;21148;-77
2022/10/25 09:54:42;;;;;;;1.67;1.57;;;;;;;;;;5072714;28;20451;-77
2022/10/25 09:57:10;;;;;;;3.83;1.60;;;;;;;;;;5072530;28;20441;-76
2022/10/25 09:59:37;;;;;;;3.93;1.50;;;;;;;;;;5072363;28;20949;-77
2022/10/25 10:02:04;;;;;;;3.27;1.47;;;;;;;;;;5072509;28;20987;-77
2022/10/25 10:04:34;;;;;;;7.63;2.17;;;;;;;;;;5070115;28;20461;-77
2022/10/25 10:07:05;;;;;;;2.97;1.80;;;;;;;;;;5067350;28;20830;-76
2022/10/25 10:09:33;;;;;;;4.40;1.77;;;;;;;;;;5071979;28;20476;-77
2022/10/25 10:12:02;;;;;;;3.20;1.40;;;;;;;;;;5071795;28;20465;-77
2022/10/25 10:14:35;;;;;;;1.87;1.37;;;;;;;;;;5071526;28;20444;-79
2022/10/25 10:17:03;;;;;;;4.10;1.67;;;;;;;;;;5072120;28;20434;-77
2022/10/25 10:19:30;;;;;;;2.80;1.20;;;;;;;;;;5071752;28;20486;-77
2022/10/25 10:21:58;;;;;;;2.80;1.50;;;;;;;;;;5071764;28;20464;-78
2022/10/25 10:24:27;;;;;;;3.50;1.67;;;;;;;;;;5071136;28;20448;-78
2022/10/25 10:26:56;;;;;;;3.20;1.93;;;;;;;;;;5060425;28;20457;-77
2022/10/25 10:29:24;;;;;;;2.90;1.43;;;;;;;;;;5057004;28;20565;-76
2022/10/25 10:31:54;;;;;;;2.40;1.57;;;;;;;;;;5071094;28;20982;-76
2022/10/25 10:34:23;;;;;;;2.20;1.90;;;;;;;;;;5070783;28;20448;-76
2022/10/25 10:37:01;;;;;;;3.17;1.70;;;;;;;;;;5071255;28;20918;-77
2022/10/25 10:39:29;;;;;;;2.70;1.50;;;;;;;;;;5071317;28;20908;-77
2022/10/25 10:42:01;;;;;;;7.60;2.00;;;;;;;;;;5071208;28;20510;-76
2022/10/25 10:44:29;;;;;;;3.10;1.77;;;;;;;;;;5071280;28;20433;-77
2022/10/25 10:46:58;;;;;;;2.73;1.97;;;;;;;;;;5072787;28;20547;-77
2022/10/25 10:49:35;;;;;;;2.60;1.80;;;;;;;;;;5073639;28;20484;-80
2022/10/25 10:52:02;;;;;;;2.17;1.40;;;;;;;;;;5086637;28;20471;-80
2022/10/25 10:54:31;;;;;;;1.57;1.23;;;;;;;;;;5071154;28;20446;-77
2022/10/25 10:56:59;;;;;;;3.33;1.50;;;;;;;;;;5072922;28;20448;-76
2022/10/25 10:59:29;;;;;;;1.87;1.43;;;;;;;;;;5071813;28;20445;-77
2022/10/25 11:01:58;;;;;;;3.03;1.63;;;;;;;;;;5073056;28;20472;-76
2022/10/25 11:04:25;;;;;;;2.37;1.53;;;;;;;;;;5073026;28;20445;-76
2022/10/25 11:06:52;;;;;;;3.67;1.63;;;;;;;;;;5072042;28;20460;-77
2022/10/25 11:09:23;;;;;;;3.17;1.20;;;;;;;;;;5071622;28;21130;-76
2022/10/25 11:12:05;;;;;;;2.20;1.30;;;;;;;;;;5071851;28;20475;-77
2022/10/25 11:14:32;;;;;;;2.17;1.50;;;;;;;;;;5071020;28;20777;-77
2022/10/25 11:17:02;;;;;;;4.20;1.20;;;;;;;;;;5071464;28;20436;-75
2022/10/25 11:19:40;;;;;;;4.10;1.40;;;;;;;;;;5071152;28;20437;-76
2022/10/25 11:22:17;;;;;;;4.20;1.67;;;;;;;;;;5071218;28;20802;-76
2022/10/25 11:24:47;;;;;;;2.17;1.60;;;;;;;;;;5070659;28;20424;-76
2022/10/25 11:27:18;;;;;;;1.70;1.20;;;;;;;;;;5071669;28;20452;-76
2022/10/25 11:30:00;;;;;;;3.13;1.33;;;;;;;;;;5070627;28;20480;-76
2022/10/25 11:32:42;;;;;;;1.77;1.50;;;;;;;;;;5070732;28;20533;-76
2022/10/25 11:35:16;;;;;;;2.23;1.43;;;;;;;;;;5071244;28;20429;-75
2022/10/25 11:37:47;;;;;;;2.40;1.30;;;;;;;;;;5071091;28;20429;-77
2022/10/25 11:40:16;;;;;;;2.00;1.13;;;;;;;;;;5070746;28;20920;-75
2022/10/25 11:42:59;;;;;;;2.63;1.40;;;;;;;;;;5070446;28;20534;-77
2022/10/25 11:45:32;;;;;;;2.87;1.40;;;;;;;;;;5070572;28;20429;-77
2022/10/25 11:48:19;;;;;;;1.20;1.10;;;;;;;;;;5064241;28;20495;-76
2022/10/25 11:50:49;;;;;;;3.83;1.67;;;;;;;;;;5061750;28;20503;-76
2022/10/25 11:53:26;;;;;;;2.33;1.40;;;;;;;;;;5059846;28;20488;-78
2022/10/25 11:55:56;;;;;;;1.80;1.00;;;;;;;;;;5064079;28;20444;-77
2022/10/25 11:58:34;;;;;;;2.57;1.00;;;;;;;;;;5068639;28;20459;-77
2022/10/25 12:01:06;;;;;;;1.70;1.50;;;;;;;;;;5069706;28;20463;-77
2022/10/25 12:03:48;;;;;;;1.53;1.20;;;;;;;;;;5068372;28;20455;-77
2022/10/25 12:06:19;;;;;;;2.60;1.27;;;;;;;;;;5068862;28;20451;-75
2022/10/25 12:08:50;;;;;;;4.27;1.30;;;;;;;;;;5068947;28;20448;-75
2022/10/25 12:11:19;;;;;;;2.20;1.20;;;;;;;;;;5069202;28;20492;-77
2022/10/25 12:23:01;;;;;;;4.17;1.13;;;;;;;;;;5050803;28;20453;-76
2022/10/25 12:47:15;;;;;;;1.67;1.57;;;;;;;;;;5005700;28;20444;-79
2022/10/25 12:49:52;;;;;;;2.83;1.40;;;;;;;;;;5056102;28;20517;-78
2022/10/25 12:52:24;;;;;;;1.90;1.30;;;;;;;;;;5063402;28;20465;-77
2022/10/25 12:55:06;;;;;;;4.20;1.57;;;;;;;;;;5061273;28;20437;-76
2022/10/25 12:57:36;;;;;;;6.43;1.80;;;;;;;;;;5051063;28;20457;-77
2022/10/25 13:00:09;;;;;;;2.53;1.50;;;;;;;;;;5053525;28;20448;-77
2022/10/25 13:02:55;;;;;;;3.90;1.60;;;;;;;;;;5053052;28;20484;-77
2022/10/25 13:05:45;;;;;;;5.03;1.90;;;;;;;;;;5055014;28;20445;-77
2022/10/25 13:08:13;;;;;;;2.90;1.57;;;;;;;;;;5070576;28;20456;-76
2022/10/25 13:10:42;;;;;;;1.67;1.30;;;;;;;;;;5061901;28;20487;-77
2022/10/25 13:13:16;;;;;;;4.10;1.93;;;;;;;;;;5074079;28;20448;-76
2022/10/25 13:15:45;;;;;;;3.93;1.80;;;;;;;;;;5065114;28;20437;-77
2022/10/25 13:18:25;;;;;;;3.43;1.43;;;;;;;;;;5072251;28;20775;-77
2022/10/25 13:20:54;;;;;;;4.77;1.80;;;;;;;;;;5059684;28;20444;-78
2022/10/25 13:23:57;;;;;;;5.00;1.70;;;;;;;;;;5072809;28;20445;-77
2022/10/25 13:26:25;;;;;;;3.00;1.70;;;;;;;;;;5073167;28;21038;-77
2022/10/25 13:28:53;;;;;;;2.40;1.43;;;;;;;;;;5072934;28;20462;-77
2022/10/25 13:31:30;;;;;;;1.93;1.23;;;;;;;;;;5071876;28;20856;-76
2022/10/25 13:34:16;;;;;;;2.53;1.60;;;;;;;;;;5072421;28;20456;-76
2022/10/25 13:36:48;;;;;;;2.17;1.33;;;;;;;;;;5072138;28;20451;-77
2022/10/25 13:39:16;;;;;;;3.83;1.30;;;;;;;;;;5066743;28;20523;-77
2022/10/25 13:41:44;;;;;;;2.70;1.20;;;;;;;;;;5064491;28;20821;-78
2022/10/25 13:44:19;;;;;;;1.50;1.20;;;;;;;;;;5065823;28;20506;-76
2022/10/25 13:46:46;;;;;;;3.93;1.53;;;;;;;;;;5064879;28;20984;-78
2022/10/25 13:49:25;;;;;;;1.83;1.20;;;;;;;;;;5066320;28;20795;-77
2022/10/25 13:51:56;;;;;;;2.23;1.20;;;;;;;;;;5065069;28;20484;-75
2022/10/25 13:54:23;;;;;;;6.43;1.53;;;;;;;;;;5069919;28;20441;-77
2022/10/25 13:56:51;;;;;;;1.57;1.20;;;;;;;;;;5072425;28;20577;-77
2022/10/25 13:59:38;;;;;;;3.97;1.67;;;;;;;;;;5073757;28;20447;-78
2022/10/25 14:02:15;;;;;;;2.53;1.90;;;;;;;;;;5072946;28;20968;-78
2022/10/25 14:04:42;;;;;;;4.13;1.63;;;;;;;;;;5071846;28;20954;-79
2022/10/25 14:07:28;;;;;;;6.00;1.40;;;;;;;;;;5072329;28;20479;-76
2022/10/25 14:09:56;;;;;;;2.57;1.43;;;;;;;;;;5072244;28;20452;-77
2022/10/25 14:12:23;;;;;;;4.60;1.80;;;;;;;;;;5072343;28;20457;-77
2022/10/25 14:14:55;;;;;;;2.40;1.57;;;;;;;;;;5071589;28;20451;-77
2022/10/25 14:17:27;;;;;;;2.90;1.90;;;;;;;;;;5072016;28;20425;-77
2022/10/25 14:19:56;;;;;;;2.60;1.50;;;;;;;;;;5073627;28;20933;-76
2022/10/25 14:22:27;;;;;;;3.30;1.67;;;;;;;;;;5074740;28;20449;-77
2022/10/25 14:24:56;;;;;;;1.80;1.67;;;;;;;;;;5071497;28;20468;-76
2022/10/25 14:27:27;;;;;;;3.10;1.53;;;;;;;;;;5073150;28;20456;-76
2022/10/25 14:29:55;;;;;;;4.67;1.77;;;;;;;;;;5072561;28;20498;-77
2022/10/25 14:32:22;;;;;;;3.13;1.23;;;;;;;;;;5076203;28;20571;-78
2022/10/25 14:34:50;;;;;;;4.70;1.60;;;;;;;;;;5067960;28;21054;-77
2022/10/25 14:37:17;;;;;;;2.57;1.47;;;;;;;;;;5052903;28;20445;-75
2022/10/25 14:39:51;;;;;;;2.77;1.53;;;;;;;;;;5051742;28;20453;-76
2022/10/25 14:42:20;;;;;;;4.10;1.70;;;;;;;;;;5056806;28;20461;-76
2022/10/25 14:44:48;;;;;;;2.40;1.70;;;;;;;;;;5059638;28;20442;-76
2022/10/25 14:47:26;;;;;;;3.80;2.47;;;;;;;;;;5053064;28;20450;-78
2022/10/25 14:49:54;;;;;;;3.50;1.70;;;;;;;;;;5051572;28;20858;-78
2022/10/25 14:52:21;;;;;;;2.20;1.80;;;;;;;;;;5053318;28;20476;-78
2022/10/25 14:54:54;;;;;;;4.50;2.03;;;;;;;;;;5049358;28;20453;-77
2022/10/25 14:57:24;;;;;;;2.97;1.93;;;;;;;;;;5051235;28;20442;-76
2022/10/25 14:59:52;;;;;;;3.20;1.77;;;;;;;;;;5051269;28;20451;-77
2022/10/25 15:02:22;;;;;;;3.27;1.73;;;;;;;;;;5050886;28;20564;-77
2022/10/25 15:04:49;;;;;;;3.90;1.80;;;;;;;;;;5050263;28;20448;-77
2022/10/25 15:07:20;;;;;;;3.50;2.03;;;;;;;;;;5050393;28;20445;-76
2022/10/25 15:09:51;;;;;;;3.53;1.80;;;;;;;;;;5051268;28;20508;-76
2022/10/25 15:12:20;;;;;;;6.93;2.03;;;;;;;;;;5057561;28;20504;-76
2022/10/25 15:14:48;;;;;;;4.17;2.23;;;;;;;;;;5070468;28;20445;-77
2022/10/25 15:17:17;;;;;;;5.10;2.30;;;;;;;;;;5070989;28;20441;-77
2022/10/25 15:20:12;;;;;;;3.90;1.93;;;;;;;;;;5070675;28;20449;-76
2022/10/25 15:22:42;;;;;;;5.03;2.30;;;;;;;;;;5034339;28;20560;-76
2022/10/25 15:25:20;;;;;;;3.63;2.20;;;;;;;;;;5070569;28;20489;-77
2022/10/25 15:27:47;;;;;;;4.00;2.30;;;;;;;;;;5070786;28;20463;-77